sensor_id;sensor_type;location;lat;lon;timestamp;P1;durP1;ratioP1;P2;durP2;ratioP2
50733;SDS011;36701;51.798;19.474;2022-07-05T00:00:25;8.55;;;5.90;;
50733;SDS011;36701;51.798;19.474;2022-07-05T00:03:04;6.30;;;5.47;;
50733;SDS011;36701;51.798;19.474;2022-07-05T00:05:37;10.10;;;6.50;;
50733;SDS011;36701;51.798;19.474;2022-07-05T00:08:04;8.00;;;5.47;;
50733;SDS011;36701;51.798;19.474;2022-07-05T00:10:32;6.53;;;5.93;;
50733;SDS011;36701;51.798;19.474;2022-07-05T00:12:59;6.95;;;5.78;;
50733;SDS011;36701;51.798;19.474;2022-07-05T00:15:25;6.12;;;5.60;;
50733;SDS011;36701;51.798;19.474;2022-07-05T00:17:52;7.87;;;5.25;;
50733;SDS011;36701;51.798;19.474;2022-07-05T00:20:18;6.25;;;5.75;;
50733;SDS011;36701;51.798;19.474;2022-07-05T00:22:45;9.90;;;5.80;;
50733;SDS011;36701;51.798;19.474;2022-07-05T00:25:11;6.25;;;5.18;;
50733;SDS011;36701;51.798;19.474;2022-07-05T00:27:38;6.15;;;5.45;;
50733;SDS011;36701;51.798;19.474;2022-07-05T00:30:05;8.35;;;5.03;;
50733;SDS011;36701;51.798;19.474;2022-07-05T00:32:32;7.53;;;5.93;;
50733;SDS011;36701;51.798;19.474;2022-07-05T00:34:58;9.40;;;5.35;;
50733;SDS011;36701;51.798;19.474;2022-07-05T00:37:25;5.97;;;5.30;;
50733;SDS011;36701;51.798;19.474;2022-07-05T00:39:51;11.93;;;5.03;;
50733;SDS011;36701;51.798;19.474;2022-07-05T00:42:18;9.32;;;4.75;;
50733;SDS011;36701;51.798;19.474;2022-07-05T00:44:44;8.10;;;4.60;;
50733;SDS011;36701;51.798;19.474;2022-07-05T00:47:11;7.78;;;5.30;;
50733;SDS011;36701;51.798;19.474;2022-07-05T00:49:38;7.82;;;5.32;;
50733;SDS011;36701;51.798;19.474;2022-07-05T00:52:06;5.72;;;5.03;;
50733;SDS011;36701;51.798;19.474;2022-07-05T00:54:33;10.55;;;5.47;;
50733;SDS011;36701;51.798;19.474;2022-07-05T00:57:02;4.93;;;4.43;;
50733;SDS011;36701;51.798;19.474;2022-07-05T00:59:29;9.85;;;4.53;;
50733;SDS011;36701;51.798;19.474;2022-07-05T01:01:57;9.70;;;4.22;;
50733;SDS011;36701;51.798;19.474;2022-07-05T01:04:25;6.70;;;4.97;;
50733;SDS011;36701;51.798;19.474;2022-07-05T01:06:52;8.40;;;4.60;;
50733;SDS011;36701;51.798;19.474;2022-07-05T01:09:19;11.90;;;4.70;;
50733;SDS011;36701;51.798;19.474;2022-07-05T01:11:50;8.77;;;4.97;;
50733;SDS011;36701;51.798;19.474;2022-07-05T01:14:18;13.57;;;5.35;;
50733;SDS011;36701;51.798;19.474;2022-07-05T01:16:47;7.22;;;5.20;;
50733;SDS011;36701;51.798;19.474;2022-07-05T01:19:15;9.07;;;5.22;;
50733;SDS011;36701;51.798;19.474;2022-07-05T01:21:43;7.82;;;5.07;;
50733;SDS011;36701;51.798;19.474;2022-07-05T01:24:13;8.85;;;5.85;;
50733;SDS011;36701;51.798;19.474;2022-07-05T01:26:42;10.68;;;5.32;;
50733;SDS011;36701;51.798;19.474;2022-07-05T01:29:10;8.88;;;6.78;;
50733;SDS011;36701;51.798;19.474;2022-07-05T01:31:37;9.65;;;6.60;;
50733;SDS011;36701;51.798;19.474;2022-07-05T01:34:04;9.73;;;7.45;;
50733;SDS011;36701;51.798;19.474;2022-07-05T01:36:32;11.23;;;6.95;;
50733;SDS011;36701;51.798;19.474;2022-07-05T01:39:00;9.68;;;5.93;;
50733;SDS011;36701;51.798;19.474;2022-07-05T01:41:28;8.50;;;5.70;;
50733;SDS011;36701;51.798;19.474;2022-07-05T01:43:55;9.00;;;5.78;;
50733;SDS011;36701;51.798;19.474;2022-07-05T01:46:22;15.48;;;5.87;;
50733;SDS011;36701;51.798;19.474;2022-07-05T01:48:51;10.13;;;6.68;;
50733;SDS011;36701;51.798;19.474;2022-07-05T01:51:23;12.13;;;6.32;;
50733;SDS011;36701;51.798;19.474;2022-07-05T01:53:53;6.15;;;5.55;;
50733;SDS011;36701;51.798;19.474;2022-07-05T01:56:19;11.52;;;6.00;;
50733;SDS011;36701;51.798;19.474;2022-07-05T01:58:46;10.75;;;6.62;;
50733;SDS011;36701;51.798;19.474;2022-07-05T02:01:12;5.80;;;5.28;;
50733;SDS011;36701;51.798;19.474;2022-07-05T02:03:40;11.40;;;6.07;;
50733;SDS011;36701;51.798;19.474;2022-07-05T02:06:07;10.13;;;6.43;;
50733;SDS011;36701;51.798;19.474;2022-07-05T02:08:36;11.00;;;7.25;;
50733;SDS011;36701;51.798;19.474;2022-07-05T02:11:03;7.25;;;6.55;;
50733;SDS011;36701;51.798;19.474;2022-07-05T02:13:30;14.25;;;7.30;;
50733;SDS011;36701;51.798;19.474;2022-07-05T02:15:57;11.52;;;6.87;;
50733;SDS011;36701;51.798;19.474;2022-07-05T02:18:24;11.45;;;7.07;;
50733;SDS011;36701;51.798;19.474;2022-07-05T02:20:51;14.40;;;6.95;;
50733;SDS011;36701;51.798;19.474;2022-07-05T02:23:17;13.55;;;7.37;;
50733;SDS011;36701;51.798;19.474;2022-07-05T02:25:50;9.25;;;7.97;;
50733;SDS011;36701;51.798;19.474;2022-07-05T02:28:18;14.15;;;8.02;;
50733;SDS011;36701;51.798;19.474;2022-07-05T02:30:44;13.73;;;7.53;;
50733;SDS011;36701;51.798;19.474;2022-07-05T02:33:12;9.50;;;6.78;;
50733;SDS011;36701;51.798;19.474;2022-07-05T02:35:38;14.93;;;7.65;;
50733;SDS011;36701;51.798;19.474;2022-07-05T02:38:05;9.25;;;7.65;;
50733;SDS011;36701;51.798;19.474;2022-07-05T02:40:31;9.40;;;7.55;;
50733;SDS011;36701;51.798;19.474;2022-07-05T02:42:59;14.40;;;7.12;;
50733;SDS011;36701;51.798;19.474;2022-07-05T02:45:25;13.40;;;7.80;;
50733;SDS011;36701;51.798;19.474;2022-07-05T02:47:52;10.98;;;6.72;;
50733;SDS011;36701;51.798;19.474;2022-07-05T02:50:19;12.68;;;6.95;;
50733;SDS011;36701;51.798;19.474;2022-07-05T02:52:46;12.20;;;6.50;;
50733;SDS011;36701;51.798;19.474;2022-07-05T02:55:12;14.25;;;7.40;;
50733;SDS011;36701;51.798;19.474;2022-07-05T02:57:39;13.27;;;6.87;;
50733;SDS011;36701;51.798;19.474;2022-07-05T03:00:06;11.25;;;7.15;;
50733;SDS011;36701;51.798;19.474;2022-07-05T03:02:34;13.60;;;8.18;;
50733;SDS011;36701;51.798;19.474;2022-07-05T03:05:02;11.35;;;7.57;;
50733;SDS011;36701;51.798;19.474;2022-07-05T03:07:28;10.10;;;6.80;;
50733;SDS011;36701;51.798;19.474;2022-07-05T03:09:55;16.40;;;6.50;;
50733;SDS011;36701;51.798;19.474;2022-07-05T03:12:22;9.90;;;6.97;;
50733;SDS011;36701;51.798;19.474;2022-07-05T03:14:48;12.77;;;7.47;;
50733;SDS011;36701;51.798;19.474;2022-07-05T03:17:15;9.45;;;6.43;;
50733;SDS011;36701;51.798;19.474;2022-07-05T03:19:42;8.23;;;6.90;;
50733;SDS011;36701;51.798;19.474;2022-07-05T03:22:09;8.18;;;6.20;;
50733;SDS011;36701;51.798;19.474;2022-07-05T03:24:36;11.00;;;6.65;;
50733;SDS011;36701;51.798;19.474;2022-07-05T03:27:03;8.73;;;5.90;;
50733;SDS011;36701;51.798;19.474;2022-07-05T03:29:29;10.73;;;7.28;;
50733;SDS011;36701;51.798;19.474;2022-07-05T03:31:55;11.35;;;7.32;;
50733;SDS011;36701;51.798;19.474;2022-07-05T03:34:23;8.18;;;6.85;;
50733;SDS011;36701;51.798;19.474;2022-07-05T03:36:49;11.77;;;6.30;;
50733;SDS011;36701;51.798;19.474;2022-07-05T03:39:23;9.82;;;6.85;;
50733;SDS011;36701;51.798;19.474;2022-07-05T03:41:49;6.40;;;5.78;;
50733;SDS011;36701;51.798;19.474;2022-07-05T03:44:16;11.40;;;6.05;;
50733;SDS011;36701;51.798;19.474;2022-07-05T03:46:43;9.68;;;6.07;;
50733;SDS011;36701;51.798;19.474;2022-07-05T03:49:09;8.38;;;6.45;;
50733;SDS011;36701;51.798;19.474;2022-07-05T03:51:35;13.48;;;7.03;;
50733;SDS011;36701;51.798;19.474;2022-07-05T03:54:02;7.22;;;6.53;;
50733;SDS011;36701;51.798;19.474;2022-07-05T03:56:30;7.10;;;5.95;;
50733;SDS011;36701;51.798;19.474;2022-07-05T03:58:57;10.45;;;4.70;;
50733;SDS011;36701;51.798;19.474;2022-07-05T04:01:24;8.57;;;5.65;;
50733;SDS011;36701;51.798;19.474;2022-07-05T04:03:52;14.32;;;6.95;;
50733;SDS011;36701;51.798;19.474;2022-07-05T04:06:19;9.85;;;6.85;;
50733;SDS011;36701;51.798;19.474;2022-07-05T04:08:45;12.20;;;5.75;;
50733;SDS011;36701;51.798;19.474;2022-07-05T04:11:12;8.23;;;5.43;;
50733;SDS011;36701;51.798;19.474;2022-07-05T04:13:40;7.53;;;6.15;;
50733;SDS011;36701;51.798;19.474;2022-07-05T04:16:07;6.45;;;5.85;;
50733;SDS011;36701;51.798;19.474;2022-07-05T04:18:34;5.95;;;4.95;;
50733;SDS011;36701;51.798;19.474;2022-07-05T04:21:01;7.10;;;5.93;;
50733;SDS011;36701;51.798;19.474;2022-07-05T04:23:28;13.88;;;6.15;;
50733;SDS011;36701;51.798;19.474;2022-07-05T04:25:55;5.35;;;4.85;;
50733;SDS011;36701;51.798;19.474;2022-07-05T04:28:22;9.27;;;5.20;;
50733;SDS011;36701;51.798;19.474;2022-07-05T04:30:49;10.85;;;4.95;;
50733;SDS011;36701;51.798;19.474;2022-07-05T04:33:16;5.57;;;4.78;;
50733;SDS011;36701;51.798;19.474;2022-07-05T04:35:42;6.60;;;4.37;;
50733;SDS011;36701;51.798;19.474;2022-07-05T04:38:09;10.88;;;4.18;;
50733;SDS011;36701;51.798;19.474;2022-07-05T04:40:36;9.50;;;5.12;;
50733;SDS011;36701;51.798;19.474;2022-07-05T04:43:02;7.10;;;4.87;;
50733;SDS011;36701;51.798;19.474;2022-07-05T04:45:29;7.05;;;4.25;;
50733;SDS011;36701;51.798;19.474;2022-07-05T04:47:56;4.78;;;4.37;;
50733;SDS011;36701;51.798;19.474;2022-07-05T04:50:22;5.53;;;4.75;;
50733;SDS011;36701;51.798;19.474;2022-07-05T04:52:50;6.10;;;4.37;;
50733;SDS011;36701;51.798;19.474;2022-07-05T04:55:17;7.70;;;3.92;;
50733;SDS011;36701;51.798;19.474;2022-07-05T04:57:43;5.05;;;3.70;;
50733;SDS011;36701;51.798;19.474;2022-07-05T05:00:11;3.90;;;3.15;;
50733;SDS011;36701;51.798;19.474;2022-07-05T05:02:39;6.55;;;3.17;;
50733;SDS011;36701;51.798;19.474;2022-07-05T05:05:06;2.78;;;2.62;;
50733;SDS011;36701;51.798;19.474;2022-07-05T05:07:33;4.95;;;2.78;;
50733;SDS011;36701;51.798;19.474;2022-07-05T05:10:01;3.10;;;2.90;;
50733;SDS011;36701;51.798;19.474;2022-07-05T05:12:27;2.60;;;2.50;;
50733;SDS011;36701;51.798;19.474;2022-07-05T05:14:53;7.05;;;3.03;;
50733;SDS011;36701;51.798;19.474;2022-07-05T05:17:20;9.00;;;2.87;;
50733;SDS011;36701;51.798;19.474;2022-07-05T05:19:46;4.22;;;2.58;;
50733;SDS011;36701;51.798;19.474;2022-07-05T05:22:12;3.85;;;3.08;;
50733;SDS011;36701;51.798;19.474;2022-07-05T05:24:39;3.17;;;2.40;;
50733;SDS011;36701;51.798;19.474;2022-07-05T05:27:05;3.05;;;2.08;;
50733;SDS011;36701;51.798;19.474;2022-07-05T05:29:31;5.57;;;2.25;;
50733;SDS011;36701;51.798;19.474;2022-07-05T05:31:58;4.68;;;3.00;;
50733;SDS011;36701;51.798;19.474;2022-07-05T05:34:25;2.67;;;2.05;;
50733;SDS011;36701;51.798;19.474;2022-07-05T05:36:51;2.12;;;1.85;;
50733;SDS011;36701;51.798;19.474;2022-07-05T05:39:18;7.60;;;2.47;;
50733;SDS011;36701;51.798;19.474;2022-07-05T05:41:44;3.42;;;1.95;;
50733;SDS011;36701;51.798;19.474;2022-07-05T05:44:10;2.37;;;2.17;;
50733;SDS011;36701;51.798;19.474;2022-07-05T05:46:37;3.65;;;2.08;;
50733;SDS011;36701;51.798;19.474;2022-07-05T05:49:03;7.35;;;2.37;;
50733;SDS011;36701;51.798;19.474;2022-07-05T05:51:29;4.25;;;1.90;;
50733;SDS011;36701;51.798;19.474;2022-07-05T05:53:56;2.80;;;2.17;;
50733;SDS011;36701;51.798;19.474;2022-07-05T05:56:22;7.57;;;2.03;;
50733;SDS011;36701;51.798;19.474;2022-07-05T05:58:49;2.40;;;2.20;;
50733;SDS011;36701;51.798;19.474;2022-07-05T06:01:15;2.87;;;1.75;;
50733;SDS011;36701;51.798;19.474;2022-07-05T06:03:42;2.65;;;2.03;;
50733;SDS011;36701;51.798;19.474;2022-07-05T06:06:08;3.60;;;2.17;;
50733;SDS011;36701;51.798;19.474;2022-07-05T06:08:34;3.90;;;1.80;;
50733;SDS011;36701;51.798;19.474;2022-07-05T06:11:01;7.93;;;2.03;;
50733;SDS011;36701;51.798;19.474;2022-07-05T06:13:30;1.83;;;1.70;;
50733;SDS011;36701;51.798;19.474;2022-07-05T06:15:56;5.12;;;2.28;;
50733;SDS011;36701;51.798;19.474;2022-07-05T06:18:23;1.90;;;1.80;;
50733;SDS011;36701;51.798;19.474;2022-07-05T06:20:49;2.28;;;1.98;;
50733;SDS011;36701;51.798;19.474;2022-07-05T06:23:15;5.43;;;2.85;;
50733;SDS011;36701;51.798;19.474;2022-07-05T06:25:42;4.78;;;2.10;;
50733;SDS011;36701;51.798;19.474;2022-07-05T06:28:08;5.85;;;1.98;;
50733;SDS011;36701;51.798;19.474;2022-07-05T06:30:35;2.60;;;1.80;;
50733;SDS011;36701;51.798;19.474;2022-07-05T06:33:03;4.03;;;1.73;;
50733;SDS011;36701;51.798;19.474;2022-07-05T06:35:30;3.90;;;2.03;;
50733;SDS011;36701;51.798;19.474;2022-07-05T06:37:58;4.40;;;2.70;;
50733;SDS011;36701;51.798;19.474;2022-07-05T06:40:26;4.43;;;2.50;;
50733;SDS011;36701;51.798;19.474;2022-07-05T06:42:53;9.10;;;2.30;;
50733;SDS011;36701;51.798;19.474;2022-07-05T06:45:22;6.60;;;2.00;;
50733;SDS011;36701;51.798;19.474;2022-07-05T06:47:58;2.17;;;2.03;;
50733;SDS011;36701;51.798;19.474;2022-07-05T06:50:29;3.05;;;2.10;;
50733;SDS011;36701;51.798;19.474;2022-07-05T06:52:57;2.47;;;2.28;;
50733;SDS011;36701;51.798;19.474;2022-07-05T06:55:24;2.62;;;1.87;;
50733;SDS011;36701;51.798;19.474;2022-07-05T06:57:58;2.12;;;2.00;;
50733;SDS011;36701;51.798;19.474;2022-07-05T07:00:26;8.68;;;2.83;;
50733;SDS011;36701;51.798;19.474;2022-07-05T07:02:53;2.47;;;2.03;;
50733;SDS011;36701;51.798;19.474;2022-07-05T07:05:19;3.40;;;2.62;;
50733;SDS011;36701;51.798;19.474;2022-07-05T07:07:46;1.95;;;1.83;;
50733;SDS011;36701;51.798;19.474;2022-07-05T07:10:31;2.47;;;2.10;;
50733;SDS011;36701;51.798;19.474;2022-07-05T07:12:58;5.37;;;2.37;;
50733;SDS011;36701;51.798;19.474;2022-07-05T07:15:25;3.33;;;2.08;;
50733;SDS011;36701;51.798;19.474;2022-07-05T07:17:52;2.90;;;1.83;;
50733;SDS011;36701;51.798;19.474;2022-07-05T07:20:19;4.18;;;1.70;;
50733;SDS011;36701;51.798;19.474;2022-07-05T07:22:45;9.48;;;2.20;;
50733;SDS011;36701;51.798;19.474;2022-07-05T07:25:11;5.47;;;2.42;;
50733;SDS011;36701;51.798;19.474;2022-07-05T07:27:44;2.15;;;1.92;;
50733;SDS011;36701;51.798;19.474;2022-07-05T07:30:13;4.47;;;1.55;;
50733;SDS011;36701;51.798;19.474;2022-07-05T07:32:41;3.83;;;1.98;;
50733;SDS011;36701;51.798;19.474;2022-07-05T07:35:08;2.50;;;2.28;;
50733;SDS011;36701;51.798;19.474;2022-07-05T07:37:35;4.65;;;2.92;;
50733;SDS011;36701;51.798;19.474;2022-07-05T07:40:03;5.05;;;2.00;;
50733;SDS011;36701;51.798;19.474;2022-07-05T07:42:33;1.97;;;1.87;;
50733;SDS011;36701;51.798;19.474;2022-07-05T07:45:00;2.30;;;1.80;;
50733;SDS011;36701;51.798;19.474;2022-07-05T07:47:33;3.80;;;1.80;;
50733;SDS011;36701;51.798;19.474;2022-07-05T07:50:00;2.30;;;1.80;;
50733;SDS011;36701;51.798;19.474;2022-07-05T07:52:27;2.78;;;1.80;;
50733;SDS011;36701;51.798;19.474;2022-07-05T07:54:54;1.98;;;1.70;;
50733;SDS011;36701;51.798;19.474;2022-07-05T07:57:20;2.35;;;1.70;;
50733;SDS011;36701;51.798;19.474;2022-07-05T07:59:47;1.90;;;1.80;;
50733;SDS011;36701;51.798;19.474;2022-07-05T08:02:14;1.87;;;1.77;;
50733;SDS011;36701;51.798;19.474;2022-07-05T08:04:40;2.75;;;1.87;;
50733;SDS011;36701;51.798;19.474;2022-07-05T08:07:07;4.03;;;1.83;;
50733;SDS011;36701;51.798;19.474;2022-07-05T08:12:55;6.57;;;1.92;;
50733;SDS011;36701;51.798;19.474;2022-07-05T08:15:22;1.98;;;1.65;;
50733;SDS011;36701;51.798;19.474;2022-07-05T08:17:48;1.35;;;1.35;;
50733;SDS011;36701;51.798;19.474;2022-07-05T08:20:33;1.75;;;1.58;;
50733;SDS011;36701;51.798;19.474;2022-07-05T08:23:18;4.22;;;1.55;;
50733;SDS011;36701;51.798;19.474;2022-07-05T08:25:44;2.53;;;1.50;;
50733;SDS011;36701;51.798;19.474;2022-07-05T08:28:11;2.87;;;1.40;;
50733;SDS011;36701;51.798;19.474;2022-07-05T08:30:37;3.90;;;1.75;;
50733;SDS011;36701;51.798;19.474;2022-07-05T08:33:04;1.67;;;1.58;;
50733;SDS011;36701;51.798;19.474;2022-07-05T08:35:30;1.48;;;1.37;;
50733;SDS011;36701;51.798;19.474;2022-07-05T08:37:57;2.70;;;1.50;;
50733;SDS011;36701;51.798;19.474;2022-07-05T08:40:25;2.90;;;1.65;;
50733;SDS011;36701;51.798;19.474;2022-07-05T08:42:53;1.70;;;1.60;;
50733;SDS011;36701;51.798;19.474;2022-07-05T08:45:24;1.45;;;1.37;;
50733;SDS011;36701;51.798;19.474;2022-07-05T08:47:52;9.93;;;1.73;;
50733;SDS011;36701;51.798;19.474;2022-07-05T08:50:21;4.20;;;2.22;;
50733;SDS011;36701;51.798;19.474;2022-07-05T08:52:48;2.83;;;1.80;;
50733;SDS011;36701;51.798;19.474;2022-07-05T08:55:15;1.60;;;1.50;;
50733;SDS011;36701;51.798;19.474;2022-07-05T08:57:43;1.75;;;1.58;;
50733;SDS011;36701;51.798;19.474;2022-07-05T09:00:09;8.00;;;1.42;;
50733;SDS011;36701;51.798;19.474;2022-07-05T09:02:36;6.68;;;2.05;;
50733;SDS011;36701;51.798;19.474;2022-07-05T09:05:03;3.65;;;1.25;;
50733;SDS011;36701;51.798;19.474;2022-07-05T09:07:32;5.20;;;1.90;;
50733;SDS011;36701;51.798;19.474;2022-07-05T09:09:58;12.25;;;1.95;;
50733;SDS011;36701;51.798;19.474;2022-07-05T09:12:27;2.97;;;1.62;;
50733;SDS011;36701;51.798;19.474;2022-07-05T09:14:54;4.68;;;1.55;;
50733;SDS011;36701;51.798;19.474;2022-07-05T09:17:21;4.62;;;1.58;;
50733;SDS011;36701;51.798;19.474;2022-07-05T09:23:00;1.30;;;1.30;;
50733;SDS011;36701;51.798;19.474;2022-07-05T09:25:27;1.62;;;1.52;;
50733;SDS011;36701;51.798;19.474;2022-07-05T09:30:31;1.80;;;1.50;;
50733;SDS011;36701;51.798;19.474;2022-07-05T09:33:08;2.35;;;1.70;;
50733;SDS011;36701;51.798;19.474;2022-07-05T09:35:39;2.77;;;2.23;;
50733;SDS011;36701;51.798;19.474;2022-07-05T09:38:16;9.25;;;1.75;;
50733;SDS011;36701;51.798;19.474;2022-07-05T09:40:48;3.58;;;1.77;;
50733;SDS011;36701;51.798;19.474;2022-07-05T09:43:17;1.95;;;1.23;;
50733;SDS011;36701;51.798;19.474;2022-07-05T09:48:21;8.10;;;1.42;;
50733;SDS011;36701;51.798;19.474;2022-07-05T09:50:48;3.10;;;1.40;;
50733;SDS011;36701;51.798;19.474;2022-07-05T09:53:17;5.65;;;2.12;;
50733;SDS011;36701;51.798;19.474;2022-07-05T09:56:03;2.87;;;2.00;;
50733;SDS011;36701;51.798;19.474;2022-07-05T09:58:30;4.07;;;2.15;;
50733;SDS011;36701;51.798;19.474;2022-07-05T10:00:56;2.47;;;1.77;;
50733;SDS011;36701;51.798;19.474;2022-07-05T10:03:23;4.03;;;1.70;;
50733;SDS011;36701;51.798;19.474;2022-07-05T10:05:49;3.03;;;2.45;;
50733;SDS011;36701;51.798;19.474;2022-07-05T10:08:15;9.93;;;1.87;;
50733;SDS011;36701;51.798;19.474;2022-07-05T10:10:43;2.70;;;1.83;;
50733;SDS011;36701;51.798;19.474;2022-07-05T10:13:10;1.90;;;1.80;;
50733;SDS011;36701;51.798;19.474;2022-07-05T10:15:40;2.12;;;1.27;;
50733;SDS011;36701;51.798;19.474;2022-07-05T10:18:17;5.72;;;1.50;;
50733;SDS011;36701;51.798;19.474;2022-07-05T10:20:48;4.97;;;1.45;;
50733;SDS011;36701;51.798;19.474;2022-07-05T10:23:18;3.78;;;1.90;;
50733;SDS011;36701;51.798;19.474;2022-07-05T10:25:46;10.75;;;2.65;;
50733;SDS011;36701;51.798;19.474;2022-07-05T10:28:18;5.20;;;1.75;;
50733;SDS011;36701;51.798;19.474;2022-07-05T10:30:46;3.83;;;1.75;;
50733;SDS011;36701;51.798;19.474;2022-07-05T10:33:17;2.15;;;1.60;;
50733;SDS011;36701;51.798;19.474;2022-07-05T10:35:47;8.15;;;2.78;;
50733;SDS011;36701;51.798;19.474;2022-07-05T10:38:13;2.60;;;1.85;;
50733;SDS011;36701;51.798;19.474;2022-07-05T10:40:41;10.38;;;2.50;;
50733;SDS011;36701;51.798;19.474;2022-07-05T10:43:09;9.88;;;2.97;;
50733;SDS011;36701;51.798;19.474;2022-07-05T10:45:39;10.50;;;2.65;;
50733;SDS011;36701;51.798;19.474;2022-07-05T10:50:43;7.28;;;3.03;;
50733;SDS011;36701;51.798;19.474;2022-07-05T10:53:11;3.45;;;3.08;;
50733;SDS011;36701;51.798;19.474;2022-07-05T10:55:48;6.55;;;2.70;;
50733;SDS011;36701;51.798;19.474;2022-07-05T10:58:23;4.25;;;2.50;;
50733;SDS011;36701;51.798;19.474;2022-07-05T11:03:39;5.47;;;3.12;;
50733;SDS011;36701;51.798;19.474;2022-07-05T11:06:46;3.78;;;2.60;;
50733;SDS011;36701;51.798;19.474;2022-07-05T11:11:36;6.00;;;2.95;;
50733;SDS011;36701;51.798;19.474;2022-07-05T11:14:29;6.20;;;2.97;;
50733;SDS011;36701;51.798;19.474;2022-07-05T11:22:39;7.53;;;4.70;;
50733;SDS011;36701;51.798;19.474;2022-07-05T11:25:08;4.93;;;4.28;;
50733;SDS011;36701;51.798;19.474;2022-07-05T11:27:36;9.32;;;5.25;;
50733;SDS011;36701;51.798;19.474;2022-07-05T11:30:27;7.12;;;5.43;;
50733;SDS011;36701;51.798;19.474;2022-07-05T11:32:53;7.22;;;5.50;;
50733;SDS011;36701;51.798;19.474;2022-07-05T11:35:19;7.47;;;5.40;;
50733;SDS011;36701;51.798;19.474;2022-07-05T11:37:59;6.15;;;5.10;;
50733;SDS011;36701;51.798;19.474;2022-07-05T11:40:36;6.53;;;5.82;;
50733;SDS011;36701;51.798;19.474;2022-07-05T11:43:07;5.32;;;4.70;;
50733;SDS011;36701;51.798;19.474;2022-07-05T11:45:35;5.30;;;4.53;;
50733;SDS011;36701;51.798;19.474;2022-07-05T11:48:01;10.07;;;5.00;;
50733;SDS011;36701;51.798;19.474;2022-07-05T11:50:30;6.60;;;5.05;;
50733;SDS011;36701;51.798;19.474;2022-07-05T11:52:58;10.45;;;4.95;;
50733;SDS011;36701;51.798;19.474;2022-07-05T11:55:29;7.50;;;5.10;;
50733;SDS011;36701;51.798;19.474;2022-07-05T11:57:57;9.50;;;4.68;;
50733;SDS011;36701;51.798;19.474;2022-07-05T12:02:53;7.45;;;4.53;;
50733;SDS011;36701;51.798;19.474;2022-07-05T12:05:20;9.20;;;4.75;;
50733;SDS011;36701;51.798;19.474;2022-07-05T12:07:50;7.70;;;4.28;;
50733;SDS011;36701;51.798;19.474;2022-07-05T12:10:18;6.30;;;4.37;;
50733;SDS011;36701;51.798;19.474;2022-07-05T12:13:07;5.93;;;4.05;;
50733;SDS011;36701;51.798;19.474;2022-07-05T12:15:36;7.90;;;4.50;;
50733;SDS011;36701;51.798;19.474;2022-07-05T12:18:04;7.93;;;4.05;;
50733;SDS011;36701;51.798;19.474;2022-07-05T12:20:32;5.10;;;4.65;;
50733;SDS011;36701;51.798;19.474;2022-07-05T12:22:59;8.82;;;4.37;;
50733;SDS011;36701;51.798;19.474;2022-07-05T12:25:27;13.27;;;4.68;;
50733;SDS011;36701;51.798;19.474;2022-07-05T12:27:55;4.47;;;3.95;;
50733;SDS011;36701;51.798;19.474;2022-07-05T12:30:23;8.13;;;3.22;;
50733;SDS011;36701;51.798;19.474;2022-07-05T12:32:57;4.03;;;3.45;;
50733;SDS011;36701;51.798;19.474;2022-07-05T12:38:02;3.95;;;3.17;;
50733;SDS011;36701;51.798;19.474;2022-07-05T12:40:34;4.82;;;2.80;;
50733;SDS011;36701;51.798;19.474;2022-07-05T12:43:02;8.43;;;3.22;;
50733;SDS011;36701;51.798;19.474;2022-07-05T12:45:29;3.72;;;2.58;;
50733;SDS011;36701;51.798;19.474;2022-07-05T12:47:57;10.23;;;3.25;;
50733;SDS011;36701;51.798;19.474;2022-07-05T12:50:26;2.83;;;2.60;;
50733;SDS011;36701;51.798;19.474;2022-07-05T12:53:06;3.15;;;2.95;;
50733;SDS011;36701;51.798;19.474;2022-07-05T12:56:04;9.65;;;2.67;;
50733;SDS011;36701;51.798;19.474;2022-07-05T12:58:51;5.68;;;3.20;;
50733;SDS011;36701;51.798;19.474;2022-07-05T13:01:21;5.45;;;2.42;;
50733;SDS011;36701;51.798;19.474;2022-07-05T13:12:13;4.90;;;2.70;;
50733;SDS011;36701;51.798;19.474;2022-07-05T13:14:51;5.62;;;3.20;;
50733;SDS011;36701;51.798;19.474;2022-07-05T13:17:22;3.80;;;3.50;;
50733;SDS011;36701;51.798;19.474;2022-07-05T13:19:49;4.32;;;2.83;;
50733;SDS011;36701;51.798;19.474;2022-07-05T13:22:17;7.72;;;2.97;;
50733;SDS011;36701;51.798;19.474;2022-07-05T13:24:44;8.32;;;3.12;;
50733;SDS011;36701;51.798;19.474;2022-07-05T13:27:11;5.40;;;3.03;;
50733;SDS011;36701;51.798;19.474;2022-07-05T13:29:39;4.70;;;3.20;;
50733;SDS011;36701;51.798;19.474;2022-07-05T13:32:06;8.30;;;3.10;;
50733;SDS011;36701;51.798;19.474;2022-07-05T13:34:32;4.57;;;2.67;;
50733;SDS011;36701;51.798;19.474;2022-07-05T13:36:59;3.17;;;2.87;;
50733;SDS011;36701;51.798;19.474;2022-07-05T13:39:27;6.65;;;3.37;;
50733;SDS011;36701;51.798;19.474;2022-07-05T13:41:54;3.58;;;3.37;;
50733;SDS011;36701;51.798;19.474;2022-07-05T13:44:21;6.80;;;3.33;;
50733;SDS011;36701;51.798;19.474;2022-07-05T13:46:48;3.47;;;3.15;;
50733;SDS011;36701;51.798;19.474;2022-07-05T13:49:15;3.10;;;2.80;;
50733;SDS011;36701;51.798;19.474;2022-07-05T13:51:42;3.95;;;3.55;;
50733;SDS011;36701;51.798;19.474;2022-07-05T13:54:08;4.28;;;3.45;;
50733;SDS011;36701;51.798;19.474;2022-07-05T13:56:34;4.68;;;3.37;;
50733;SDS011;36701;51.798;19.474;2022-07-05T13:59:03;5.00;;;3.33;;
50733;SDS011;36701;51.798;19.474;2022-07-05T14:01:30;5.45;;;3.60;;
50733;SDS011;36701;51.798;19.474;2022-07-05T14:03:57;9.05;;;3.75;;
50733;SDS011;36701;51.798;19.474;2022-07-05T14:06:25;6.93;;;4.18;;
50733;SDS011;36701;51.798;19.474;2022-07-05T14:08:52;12.27;;;4.10;;
50733;SDS011;36701;51.798;19.474;2022-07-05T14:11:18;6.78;;;4.05;;
50733;SDS011;36701;51.798;19.474;2022-07-05T14:13:45;4.97;;;4.05;;
50733;SDS011;36701;51.798;19.474;2022-07-05T14:16:11;4.82;;;3.60;;
50733;SDS011;36701;51.798;19.474;2022-07-05T14:18:38;6.35;;;3.33;;
50733;SDS011;36701;51.798;19.474;2022-07-05T14:21:04;6.10;;;3.05;;
50733;SDS011;36701;51.798;19.474;2022-07-05T14:23:37;3.53;;;3.20;;
50733;SDS011;36701;51.798;19.474;2022-07-05T14:26:04;5.93;;;2.80;;
50733;SDS011;36701;51.798;19.474;2022-07-05T14:28:30;10.48;;;2.35;;
50733;SDS011;36701;51.798;19.474;2022-07-05T14:30:56;2.92;;;2.20;;
50733;SDS011;36701;51.798;19.474;2022-07-05T14:33:23;8.02;;;2.10;;
50733;SDS011;36701;51.798;19.474;2022-07-05T14:35:49;5.70;;;2.47;;
50733;SDS011;36701;51.798;19.474;2022-07-05T14:38:16;2.45;;;2.28;;
50733;SDS011;36701;51.798;19.474;2022-07-05T14:40:42;5.28;;;2.60;;
50733;SDS011;36701;51.798;19.474;2022-07-05T14:43:08;2.25;;;2.10;;
50733;SDS011;36701;51.798;19.474;2022-07-05T14:45:35;3.70;;;2.83;;
50733;SDS011;36701;51.798;19.474;2022-07-05T14:48:01;6.00;;;2.78;;
50733;SDS011;36701;51.798;19.474;2022-07-05T14:50:28;5.60;;;2.30;;
50733;SDS011;36701;51.798;19.474;2022-07-05T14:52:54;2.62;;;2.15;;
50733;SDS011;36701;51.798;19.474;2022-07-05T14:55:21;6.32;;;2.12;;
50733;SDS011;36701;51.798;19.474;2022-07-05T14:57:47;9.35;;;2.42;;
50733;SDS011;36701;51.798;19.474;2022-07-05T15:00:14;2.12;;;1.90;;
50733;SDS011;36701;51.798;19.474;2022-07-05T15:02:43;1.98;;;1.87;;
50733;SDS011;36701;51.798;19.474;2022-07-05T15:05:09;2.50;;;2.30;;
50733;SDS011;36701;51.798;19.474;2022-07-05T15:07:38;4.30;;;2.42;;
50733;SDS011;36701;51.798;19.474;2022-07-05T15:10:06;4.45;;;1.90;;
50733;SDS011;36701;51.798;19.474;2022-07-05T15:12:34;3.20;;;2.92;;
50733;SDS011;36701;51.798;19.474;2022-07-05T15:15:02;7.30;;;2.62;;
50733;SDS011;36701;51.798;19.474;2022-07-05T15:17:29;2.33;;;2.22;;